Guymon, Oklahoma
Current Conditions -  °F | °C
As of 10:53 AM on Saturday 25 Oct 2014 (Local Time) from KGUY Reporting Station
Clear Clear  
Wind Chill: 68°   Ceiling: Unl
Heat Index: 68°   Visibility: 10mi
Dew Point: 44°   Wind: 0mph
Humidity: 42%   Direction: NA
Pressure: 30.13"   Gusts: NA
Location:  36.68°N, 101.48°W
Report Text: KGUY 251553Z AUTO 00000KT 10SM CLR 20/07 A3013 RMK AO2 SLP172 T02000067
Loading
Personal Weather Stations






























Interactive Weather Map
Tropical Storm Tracking
New forecast layout! Learn more

10-Day Weather Forecast

Advertisements
Track Severe Weather on mobile